createdAt,value
2019-01-27T00:01:49.767Z,3.90
2019-01-27T00:04:18.909Z,5.10
2019-01-27T00:06:51.167Z,3.60
2019-01-27T00:09:19.790Z,4.40
2019-01-27T00:11:48.487Z,4.80
2019-01-27T00:14:17.037Z,4.40
2019-01-27T00:16:46.323Z,4.57
2019-01-27T00:19:15.103Z,4.73
2019-01-27T00:21:43.725Z,3.93
2019-01-27T00:24:12.783Z,4.20
2019-01-27T00:26:41.341Z,5.40
2019-01-27T00:29:10.182Z,4.10
2019-01-27T00:31:38.804Z,3.93
2019-01-27T00:34:07.522Z,4.40
2019-01-27T00:36:36.196Z,4.13
2019-01-27T00:39:07.961Z,4.07
2019-01-27T00:41:37.287Z,4.00
2019-01-27T00:44:05.988Z,4.03
2019-01-27T00:46:34.837Z,3.10
2019-01-27T00:49:03.485Z,2.90
2019-01-27T00:51:32.420Z,3.43
2019-01-27T00:54:01.005Z,4.30
2019-01-27T00:56:29.799Z,3.60
2019-01-27T00:58:58.357Z,3.27
2019-01-27T01:01:27.324Z,3.47
2019-01-27T01:03:55.986Z,4.33
2019-01-27T01:06:24.780Z,3.80
2019-01-27T01:08:53.437Z,4.27
2019-01-27T01:11:24.158Z,3.87
2019-01-27T01:13:53.051Z,3.30
2019-01-27T01:16:21.759Z,4.03
2019-01-27T01:18:50.832Z,3.60
2019-01-27T01:21:19.455Z,3.40
2019-01-27T01:23:48.201Z,3.73
2019-01-27T01:26:17.097Z,3.70
2019-01-27T01:28:45.989Z,4.23
2019-01-27T01:31:14.621Z,3.20
2019-01-27T01:33:44.998Z,3.27
2019-01-27T01:36:13.633Z,3.87
2019-01-27T01:38:42.601Z,3.53
2019-01-27T01:41:11.470Z,3.03
2019-01-27T01:43:40.208Z,3.20
2019-01-27T01:46:09.246Z,2.80
2019-01-27T01:48:37.903Z,3.23
2019-01-27T01:51:06.826Z,3.37
2019-01-27T01:53:35.310Z,3.00
2019-01-27T01:56:04.808Z,2.90
2019-01-27T01:58:33.445Z,2.83
2019-01-27T02:01:02.388Z,2.73
2019-01-27T02:03:30.943Z,2.80
2019-01-27T02:05:59.502Z,3.33
2019-01-27T02:08:29.079Z,3.07
2019-01-27T02:10:57.719Z,3.30
2019-01-27T02:13:26.431Z,3.57
2019-01-27T02:16:00.430Z,3.17
2019-01-27T02:18:29.273Z,2.80
2019-01-27T02:20:57.966Z,2.80
2019-01-27T02:23:26.906Z,2.63
2019-01-27T02:25:55.840Z,3.30
2019-01-27T02:28:24.687Z,2.77
2019-01-27T02:30:53.327Z,2.50
2019-01-27T02:33:22.461Z,2.70
2019-01-27T02:35:51.095Z,2.30
2019-01-27T02:38:20.255Z,2.43
2019-01-27T02:40:48.883Z,2.80
2019-01-27T02:43:17.960Z,2.33
2019-01-27T02:45:46.715Z,2.30
2019-01-27T02:48:15.279Z,2.27
2019-01-27T02:50:43.841Z,2.80
2019-01-27T02:53:12.676Z,1.97
2019-01-27T02:55:41.305Z,2.70
2019-01-27T02:58:10.014Z,2.23
2019-01-27T03:00:39.551Z,2.10
2019-01-27T03:03:08.251Z,2.37
2019-01-27T03:05:47.881Z,2.40
2019-01-27T03:08:16.448Z,1.90
2019-01-27T03:10:45.013Z,1.90
2019-01-27T03:13:13.823Z,1.93
2019-01-27T03:15:42.458Z,2.47
2019-01-27T03:18:11.607Z,1.90
2019-01-27T03:20:40.241Z,2.00
2019-01-27T03:23:08.926Z,2.20
2019-01-27T03:25:37.542Z,2.20
2019-01-27T03:28:06.356Z,2.30
2019-01-27T03:30:35.246Z,1.80
2019-01-27T03:33:03.878Z,1.97
2019-01-27T03:35:32.547Z,2.50
2019-01-27T03:38:01.506Z,2.10
2019-01-27T03:40:30.125Z,1.77
2019-01-27T03:42:58.839Z,2.17
2019-01-27T03:45:27.464Z,2.17
2019-01-27T03:47:56.221Z,2.50
2019-01-27T03:50:24.768Z,2.27
2019-01-27T03:52:53.509Z,2.00
2019-01-27T03:55:28.507Z,1.83
2019-01-27T03:57:57.959Z,2.27
2019-01-27T04:00:27.459Z,1.97
2019-01-27T04:02:56.143Z,2.13
2019-01-27T04:05:24.768Z,2.00
2019-01-27T04:07:53.759Z,1.67
2019-01-27T04:10:27.521Z,2.13
2019-01-27T04:12:56.628Z,1.67
2019-01-27T04:15:25.424Z,1.73
2019-01-27T04:17:54.411Z,2.00
2019-01-27T04:20:23.513Z,2.27
2019-01-27T04:22:52.594Z,1.70
2019-01-27T04:25:21.700Z,1.60
2019-01-27T04:27:50.280Z,2.00
2019-01-27T04:30:24.138Z,1.80
2019-01-27T04:32:52.635Z,1.50
2019-01-27T04:35:21.763Z,1.77
2019-01-27T04:37:50.425Z,1.87
2019-01-27T04:40:21.141Z,1.50
2019-01-27T04:42:49.880Z,1.60
2019-01-27T04:45:20.211Z,1.43
2019-01-27T04:47:49.179Z,1.50
2019-01-27T04:50:18.429Z,1.40
2019-01-27T04:52:47.299Z,1.07
2019-01-27T04:55:17.905Z,1.07
2019-01-27T04:57:46.996Z,1.00
2019-01-27T05:00:18.691Z,1.10
2019-01-27T05:02:49.492Z,1.40
2019-01-27T05:05:18.195Z,1.03
2019-01-27T05:07:46.800Z,1.07
2019-01-27T05:10:15.621Z,1.27
2019-01-27T05:12:44.169Z,1.53
2019-01-27T05:15:17.518Z,1.20
2019-01-27T05:17:46.152Z,1.20
2019-01-27T05:20:15.182Z,1.30
2019-01-27T05:22:43.733Z,1.00
2019-01-27T05:25:16.957Z,1.03
2019-01-27T05:27:45.569Z,1.10
2019-01-27T05:30:23.265Z,1.00
2019-01-27T05:32:51.897Z,1.40
2019-01-27T05:35:21.046Z,1.10
2019-01-27T05:37:49.667Z,1.40
2019-01-27T05:40:20.008Z,1.20
2019-01-27T05:42:48.635Z,0.83
2019-01-27T05:45:18.958Z,0.80
2019-01-27T05:47:47.960Z,1.00
2019-01-27T05:50:17.897Z,1.10
2019-01-27T05:52:46.532Z,0.80
2019-01-27T05:55:19.976Z,1.10
2019-01-27T05:57:48.575Z,1.17
2019-01-27T06:00:34.457Z,0.80
2019-01-27T06:03:03.379Z,1.20
2019-01-27T06:05:32.503Z,1.33
2019-01-27T06:08:01.064Z,0.83
2019-01-27T06:10:29.751Z,1.03
2019-01-27T06:12:58.314Z,1.10
2019-01-27T06:15:27.352Z,1.37
2019-01-27T06:17:56.239Z,0.80
2019-01-27T06:20:24.803Z,1.27
2019-01-27T06:22:53.424Z,1.00
2019-01-27T06:25:22.267Z,1.20
2019-01-27T06:27:50.819Z,1.00
2019-01-27T06:30:27.667Z,1.03
2019-01-27T06:33:01.470Z,1.20
2019-01-27T06:35:30.176Z,0.97
2019-01-27T06:37:59.043Z,1.20
2019-01-27T06:40:27.596Z,1.20
2019-01-27T06:42:56.823Z,1.13
2019-01-27T06:45:25.521Z,1.60
2019-01-27T06:47:54.411Z,1.57
2019-01-27T06:50:22.964Z,1.30
2019-01-27T06:52:51.771Z,1.27
2019-01-27T06:55:21.685Z,1.10
2019-01-27T06:57:50.575Z,1.50
2019-01-27T07:00:34.978Z,1.20
2019-01-27T07:03:06.110Z,1.47
2019-01-27T07:05:39.303Z,1.60
2019-01-27T07:08:09.611Z,1.23
2019-01-27T07:10:45.780Z,1.40
2019-01-27T07:13:16.354Z,1.33
2019-01-27T07:15:55.498Z,1.27
2019-01-27T07:18:37.932Z,1.40
2019-01-27T07:21:11.098Z,1.00
2019-01-27T07:23:44.504Z,1.13
2019-01-27T07:26:17.734Z,1.70
2019-01-27T07:28:51.100Z,1.53
2019-01-27T07:31:26.982Z,1.40
2019-01-27T07:34:09.144Z,1.43
2019-01-27T07:36:42.075Z,1.77
2019-01-27T07:39:21.374Z,2.20
2019-01-27T07:41:51.822Z,1.63
2019-01-27T07:44:22.430Z,1.70
2019-01-27T07:46:52.631Z,1.70
2019-01-27T07:49:22.988Z,1.63
2019-01-27T07:51:59.172Z,1.80
2019-01-27T07:54:34.977Z,1.60
2019-01-27T07:57:14.610Z,1.60
2019-01-27T07:59:48.541Z,1.90
2019-01-27T08:02:18.737Z,1.67
2019-01-27T08:04:49.128Z,1.40
2019-01-27T08:07:19.403Z,1.97
2019-01-27T08:09:50.073Z,1.80
2019-01-27T08:12:23.254Z,1.70
2019-01-27T08:14:53.756Z,1.80
2019-01-27T08:17:32.524Z,1.40
2019-01-27T08:20:05.298Z,1.50
2019-01-27T08:22:41.684Z,3.63
2019-01-27T08:25:29.582Z,1.43
2019-01-27T08:27:59.802Z,1.97
2019-01-27T08:30:30.471Z,1.83
2019-01-27T08:33:07.136Z,1.90
2019-01-27T08:35:52.554Z,2.37
2019-01-27T08:38:37.486Z,1.90
2019-01-27T08:41:07.883Z,1.93
2019-01-27T08:43:54.100Z,1.40
2019-01-27T08:46:24.698Z,1.77
2019-01-27T08:48:53.249Z,3.40
2019-01-27T08:51:22.066Z,2.37
2019-01-27T08:53:50.695Z,1.30
2019-01-27T08:56:19.438Z,2.83
2019-01-27T08:58:47.995Z,2.73
2019-01-27T09:01:18.640Z,1.93
2019-01-27T09:03:51.390Z,2.50
2019-01-27T09:06:24.844Z,1.93
2019-01-27T09:09:03.905Z,2.00
2019-01-27T09:11:34.232Z,2.30
2019-01-27T09:14:07.580Z,3.20
2019-01-27T09:16:43.721Z,2.60
2019-01-27T09:19:22.602Z,3.10
2019-01-27T09:21:59.426Z,1.80
2019-01-27T09:24:38.776Z,2.80
2019-01-27T09:27:21.687Z,3.27
2019-01-27T09:29:51.886Z,2.50
2019-01-27T09:32:25.072Z,2.37
2019-01-27T09:35:04.546Z,2.47
2019-01-27T09:37:44.300Z,1.93
2019-01-27T09:40:31.623Z,2.13
2019-01-27T09:43:07.809Z,2.00
2019-01-27T09:45:57.779Z,3.30
2019-01-27T09:48:31.006Z,2.97
2019-01-27T09:51:07.364Z,3.43
2019-01-27T09:53:37.982Z,4.60
2019-01-27T09:56:14.016Z,2.47
2019-01-27T09:58:47.096Z,2.60
2019-01-27T10:01:20.027Z,3.73
2019-01-27T10:03:50.418Z,1.70
2019-01-27T10:06:26.410Z,3.43
2019-01-27T10:09:09.090Z,3.40
2019-01-27T10:11:51.287Z,2.43
2019-01-27T10:14:24.352Z,2.23
2019-01-27T10:17:11.085Z,2.27
2019-01-27T10:19:58.099Z,2.60
2019-01-27T10:22:28.640Z,1.63
2019-01-27T10:24:59.362Z,2.43
2019-01-27T10:27:32.826Z,2.27
2019-01-27T10:30:18.646Z,1.37
2019-01-27T10:32:51.697Z,3.10
2019-01-27T10:35:31.179Z,2.10
2019-01-27T10:38:01.368Z,2.30
2019-01-27T10:40:41.491Z,2.40
2019-01-27T10:43:20.576Z,2.60
2019-01-27T10:45:56.631Z,1.90
2019-01-27T10:48:35.321Z,1.80
2019-01-27T10:51:23.088Z,1.37
2019-01-27T10:53:53.481Z,2.10
2019-01-27T10:56:26.179Z,2.40
2019-01-27T10:59:02.452Z,1.73
2019-01-27T11:01:47.970Z,1.20
2019-01-27T11:04:20.922Z,2.20
2019-01-27T11:07:00.348Z,1.67
2019-01-27T11:09:42.497Z,1.60
2019-01-27T11:12:29.113Z,1.80
2019-01-27T11:15:02.760Z,1.53
2019-01-27T11:17:42.484Z,1.40
2019-01-27T11:20:21.201Z,1.27
2019-01-27T11:22:54.138Z,1.27
2019-01-27T11:25:24.539Z,1.40
2019-01-27T11:28:12.662Z,1.53
2019-01-27T11:30:43.430Z,1.33
2019-01-27T11:33:16.156Z,1.70
2019-01-27T11:36:03.084Z,1.70
2019-01-27T11:38:49.387Z,1.53
2019-01-27T11:41:22.601Z,1.60
2019-01-27T11:43:52.815Z,1.60
2019-01-27T11:46:32.616Z,1.90
2019-01-27T11:49:05.460Z,2.20
2019-01-27T11:51:35.984Z,1.67
2019-01-27T11:54:04.793Z,1.93
2019-01-27T11:56:33.549Z,1.83
2019-01-27T11:59:02.176Z,2.17
2019-01-27T12:01:32.387Z,1.67
2019-01-27T12:04:00.936Z,1.73
2019-01-27T12:06:29.830Z,1.47
2019-01-27T12:08:58.375Z,1.73
2019-01-27T12:11:27.617Z,1.53
2019-01-27T12:13:56.246Z,1.77
2019-01-27T12:16:24.931Z,1.37
2019-01-27T12:18:53.648Z,1.40
2019-01-27T12:21:22.474Z,1.27
2019-01-27T12:23:51.046Z,1.67
2019-01-27T12:26:20.255Z,1.70
2019-01-27T12:28:48.832Z,1.60
2019-01-27T12:31:17.628Z,1.60
2019-01-27T12:33:46.271Z,1.87
2019-01-27T12:36:14.984Z,1.67
2019-01-27T12:38:43.540Z,2.00
2019-01-27T12:41:12.377Z,1.90
2019-01-27T12:43:41.010Z,2.60
2019-01-27T12:46:09.903Z,1.30
2019-01-27T12:48:38.535Z,1.70
2019-01-27T12:51:07.543Z,1.53
2019-01-27T12:53:36.111Z,1.60
2019-01-27T12:56:05.711Z,1.50
2019-01-27T12:58:34.282Z,1.07
2019-01-27T13:01:03.289Z,1.47
2019-01-27T13:03:31.920Z,1.93
2019-01-27T13:06:01.680Z,1.47
2019-01-27T13:08:30.322Z,2.13
2019-01-27T13:10:59.672Z,1.47
2019-01-27T13:13:28.233Z,2.27
2019-01-27T13:15:56.857Z,1.70
2019-01-27T13:18:25.734Z,2.03
2019-01-27T13:20:54.303Z,1.60
2019-01-27T13:23:23.498Z,1.53
2019-01-27T13:25:52.081Z,2.23
2019-01-27T13:28:20.757Z,1.80
2019-01-27T13:30:49.324Z,1.53
2019-01-27T13:33:18.103Z,1.40
2019-01-27T13:35:46.748Z,1.63
2019-01-27T13:38:15.593Z,1.53
2019-01-27T13:40:44.262Z,1.97
2019-01-27T13:43:13.410Z,1.57
2019-01-27T13:45:42.117Z,1.90
2019-01-27T13:48:10.986Z,1.70
2019-01-27T13:50:39.610Z,2.30
2019-01-27T13:53:08.387Z,2.17
2019-01-27T13:55:37.013Z,3.53
2019-01-27T13:58:06.149Z,1.50
2019-01-27T14:00:40.738Z,1.90
2019-01-27T14:03:10.263Z,2.00
2019-01-27T14:05:38.957Z,1.40
2019-01-27T14:08:09.161Z,1.67
2019-01-27T14:10:37.828Z,1.60
2019-01-27T14:13:06.649Z,1.60
2019-01-27T14:15:39.781Z,1.60
2019-01-27T14:18:09.955Z,1.20
2019-01-27T14:20:38.591Z,1.13
2019-01-27T14:23:07.362Z,1.40
2019-01-27T14:25:36.007Z,2.07
2019-01-27T14:28:05.834Z,1.30
2019-01-27T14:30:37.722Z,1.30
2019-01-27T14:33:07.128Z,1.07
2019-01-27T14:35:35.756Z,1.83
2019-01-27T14:38:04.972Z,1.80
2019-01-27T14:40:33.600Z,1.60
2019-01-27T14:43:02.560Z,1.10
2019-01-27T14:45:33.093Z,1.20
2019-01-27T14:48:02.594Z,2.57
2019-01-27T14:50:34.235Z,1.90
2019-01-27T14:53:03.321Z,1.70
2019-01-27T14:55:32.875Z,1.40
2019-01-27T14:58:01.623Z,1.80
2019-01-27T15:00:36.690Z,1.73
2019-01-27T15:03:06.789Z,1.50
2019-01-27T15:05:35.601Z,1.60
2019-01-27T15:08:04.991Z,1.63
2019-01-27T15:10:33.635Z,1.63
2019-01-27T15:13:06.458Z,1.60
2019-01-27T15:15:35.333Z,1.40
2019-01-27T15:18:05.038Z,1.60
2019-01-27T15:20:36.824Z,1.40
2019-01-27T15:23:05.558Z,1.47
2019-01-27T15:25:34.598Z,1.60
2019-01-27T15:28:03.176Z,2.23
2019-01-27T15:30:37.488Z,1.70
2019-01-27T15:33:07.388Z,1.20
2019-01-27T15:35:36.260Z,1.40
2019-01-27T15:38:05.561Z,1.30
2019-01-27T15:40:34.523Z,1.60
2019-01-27T15:43:03.079Z,1.87
2019-01-27T15:45:33.203Z,1.60
2019-01-27T15:48:01.838Z,1.90
2019-01-27T15:50:33.326Z,1.90
2019-01-27T15:53:02.322Z,3.80
2019-01-27T15:55:31.304Z,1.77
2019-01-27T15:57:59.940Z,1.70
2019-01-27T16:00:33.602Z,2.03
2019-01-27T16:03:02.243Z,1.63
2019-01-27T16:05:31.301Z,2.10
2019-01-27T16:07:59.897Z,1.60
2019-01-27T16:10:29.149Z,2.10
2019-01-27T16:12:58.352Z,2.20
2019-01-27T16:15:29.574Z,2.50
2019-01-27T16:17:58.735Z,3.80
2019-01-27T16:20:29.038Z,2.30
2019-01-27T16:23:02.372Z,2.50
2019-01-27T16:25:31.107Z,2.30
2019-01-27T16:27:59.679Z,2.10
2019-01-27T16:30:33.600Z,2.10
2019-01-27T16:33:03.873Z,2.37
2019-01-27T16:35:33.003Z,2.00
2019-01-27T16:38:01.902Z,2.33
2019-01-27T16:40:30.788Z,1.83
2019-01-27T16:42:59.354Z,2.10
2019-01-27T16:45:28.302Z,2.20
2019-01-27T16:47:56.846Z,1.97
2019-01-27T16:50:25.550Z,2.20
2019-01-27T16:52:55.251Z,2.07
2019-01-27T16:55:24.058Z,2.00
2019-01-27T16:57:52.825Z,2.57
2019-01-27T17:00:29.932Z,2.10
2019-01-27T17:02:58.812Z,2.77
2019-01-27T17:05:27.510Z,2.23
2019-01-27T17:07:58.525Z,1.77
2019-01-27T17:10:28.937Z,2.03
2019-01-27T17:12:57.707Z,2.37
2019-01-27T17:15:26.502Z,3.20
2019-01-27T17:17:55.409Z,2.50
2019-01-27T17:20:27.057Z,3.23
2019-01-27T17:22:56.340Z,3.00
2019-01-27T17:25:26.014Z,2.77
2019-01-27T17:27:55.086Z,2.60
2019-01-27T17:30:28.700Z,2.30
2019-01-27T17:32:57.576Z,2.80
2019-01-27T17:35:26.645Z,2.40
2019-01-27T17:37:55.560Z,2.73
2019-01-27T17:40:24.191Z,2.80
2019-01-27T17:42:53.101Z,2.30
2019-01-27T17:45:27.764Z,2.80
2019-01-27T17:47:56.633Z,2.43
2019-01-27T17:50:25.533Z,2.40
2019-01-27T17:52:54.446Z,2.67
2019-01-27T17:55:40.392Z,5.10
2019-01-27T17:58:28.151Z,2.43
2019-01-27T18:01:14.593Z,3.70
2019-01-27T18:03:45.445Z,3.60
2019-01-27T18:06:32.657Z,3.60
2019-01-27T18:09:18.108Z,3.17
2019-01-27T18:11:51.315Z,3.50
2019-01-27T18:14:21.624Z,3.17
2019-01-27T18:16:50.214Z,16.40
2019-01-27T18:19:19.076Z,3.60
2019-01-27T18:21:47.635Z,3.07
2019-01-27T18:24:16.407Z,3.57
2019-01-27T18:26:48.134Z,3.93
2019-01-27T18:29:16.842Z,3.10
2019-01-27T18:31:45.487Z,3.43
2019-01-27T18:34:14.577Z,2.70
2019-01-27T18:36:43.214Z,3.93
2019-01-27T18:39:12.364Z,3.20
2019-01-27T18:41:41.622Z,3.27
2019-01-27T18:44:10.232Z,4.00
2019-01-27T18:46:39.251Z,4.40
2019-01-27T18:49:07.984Z,4.53
2019-01-27T18:51:37.229Z,4.33
2019-01-27T18:54:11.027Z,3.90
2019-01-27T18:56:47.487Z,5.00
2019-01-27T18:59:23.545Z,3.87
2019-01-27T19:02:05.596Z,7.47
2019-01-27T19:04:36.080Z,5.33
2019-01-27T19:07:24.794Z,4.47
2019-01-27T19:10:01.524Z,4.57
2019-01-27T19:12:40.598Z,5.33
2019-01-27T19:15:16.111Z,3.73
2019-01-27T19:17:46.425Z,4.80
2019-01-27T19:20:17.003Z,3.80
2019-01-27T19:22:47.191Z,3.80
2019-01-27T19:25:17.828Z,4.47
2019-01-27T19:27:48.154Z,4.80
2019-01-27T19:30:20.895Z,4.30
2019-01-27T19:32:51.095Z,4.53
2019-01-27T19:35:21.397Z,4.43
2019-01-27T19:38:04.211Z,4.47
2019-01-27T19:40:34.686Z,5.00
2019-01-27T19:43:04.969Z,5.00
2019-01-27T19:45:35.377Z,5.83
2019-01-27T19:48:08.725Z,4.17
2019-01-27T19:50:44.580Z,4.97
2019-01-27T19:53:20.553Z,4.10
2019-01-27T19:55:56.921Z,4.70
2019-01-27T19:58:27.122Z,4.57
2019-01-27T20:01:13.935Z,4.50
2019-01-27T20:03:44.236Z,5.70
2019-01-27T20:06:17.243Z,5.33
2019-01-27T20:08:53.082Z,6.20
2019-01-27T20:11:24.527Z,4.70
2019-01-27T20:13:57.859Z,3.90
2019-01-27T20:16:44.679Z,3.00
2019-01-27T20:19:17.879Z,3.90
2019-01-27T20:21:54.022Z,4.20
2019-01-27T20:24:39.196Z,4.23
2019-01-27T20:27:09.811Z,4.30
2019-01-27T20:29:42.930Z,4.40
2019-01-27T20:32:16.727Z,5.20
2019-01-27T20:35:01.996Z,5.53
2019-01-27T20:37:48.817Z,6.10
2019-01-27T20:40:19.098Z,5.57
2019-01-27T20:42:49.656Z,8.33
2019-01-27T20:45:25.926Z,8.40
2019-01-27T20:47:59.114Z,5.50
2019-01-27T20:50:35.198Z,5.10
2019-01-27T20:53:06.109Z,7.20
2019-01-27T20:55:36.319Z,6.27
2019-01-27T20:58:07.417Z,6.60
2019-01-27T21:00:38.325Z,5.37
2019-01-27T21:03:08.890Z,7.23
2019-01-27T21:05:39.101Z,6.30
2019-01-27T21:08:12.358Z,6.33
2019-01-27T21:10:42.570Z,5.33
2019-01-27T21:13:13.406Z,6.10
2019-01-27T21:15:44.354Z,6.13
2019-01-27T21:18:23.811Z,5.97
2019-01-27T21:20:53.790Z,6.67
2019-01-27T21:23:22.587Z,6.30
2019-01-27T21:25:51.377Z,11.20
2019-01-27T21:28:20.642Z,14.17
2019-01-27T21:30:49.574Z,19.00
2019-01-27T21:33:18.212Z,16.50
2019-01-27T21:35:46.928Z,13.63
2019-01-27T21:38:15.497Z,13.97
2019-01-27T21:40:44.294Z,11.23
2019-01-27T21:43:13.005Z,11.63
2019-01-27T21:45:44.349Z,8.30
2019-01-27T21:48:13.236Z,10.47
2019-01-27T21:50:41.799Z,8.17
2019-01-27T21:53:10.607Z,8.50
2019-01-27T21:55:39.172Z,6.80
2019-01-27T21:58:08.389Z,6.50
2019-01-27T22:00:37.169Z,5.90
2019-01-27T22:03:05.734Z,5.67
2019-01-27T22:05:34.651Z,5.10
2019-01-27T22:08:03.205Z,5.97
2019-01-27T22:10:32.015Z,6.03
2019-01-27T22:13:00.653Z,6.30
2019-01-27T22:15:29.479Z,6.03
2019-01-27T22:17:58.027Z,6.23
2019-01-27T22:20:27.187Z,6.80
2019-01-27T22:22:55.791Z,6.00
2019-01-27T22:25:24.540Z,6.53
2019-01-27T22:27:53.089Z,6.73
2019-01-27T22:30:21.929Z,6.80
2019-01-27T22:32:50.535Z,5.87
2019-01-27T22:35:19.494Z,5.90
2019-01-27T22:37:48.050Z,6.57
2019-01-27T22:40:17.185Z,7.90
2019-01-27T22:42:45.807Z,6.40
2019-01-27T22:45:16.508Z,6.67
2019-01-27T22:47:45.258Z,4.93
2019-01-27T22:50:16.307Z,5.57
2019-01-27T22:52:45.205Z,6.20
2019-01-27T22:55:14.335Z,4.67
2019-01-27T22:57:42.953Z,5.77
2019-01-27T23:00:19.107Z,5.80
2019-01-27T23:02:47.661Z,12.73
2019-01-27T23:05:16.287Z,8.83
2019-01-27T23:07:45.046Z,5.37
2019-01-27T23:10:13.791Z,7.17
2019-01-27T23:12:42.422Z,5.50
2019-01-27T23:15:11.480Z,5.63
2019-01-27T23:17:40.402Z,5.90
2019-01-27T23:20:09.496Z,5.00
2019-01-27T23:22:38.435Z,5.10
2019-01-27T23:25:07.227Z,5.07
2019-01-27T23:27:35.925Z,5.00
2019-01-27T23:30:07.331Z,5.53
2019-01-27T23:32:35.989Z,5.30
2019-01-27T23:35:09.259Z,5.43
2019-01-27T23:37:37.881Z,5.60
2019-01-27T23:40:08.279Z,5.97
2019-01-27T23:42:37.573Z,5.70
2019-01-27T23:45:09.294Z,5.60
2019-01-27T23:47:38.001Z,5.63
2019-01-27T23:50:08.494Z,6.60
2019-01-27T23:52:37.426Z,5.47
2019-01-27T23:55:08.693Z,5.47
2019-01-27T23:57:37.699Z,6.73
